Time;durP1;ratioP1;P1;durP2;ratioP2;P2;SDS_P1;SDS_P2;PMS_P1;PMS_P2;Temp;Humidity;BMP_temperature;BMP_pressure;BME280_temperature;BME280_humidity;BME280_pressure;Samples;Min_cycle;Max_cycle;Signal;HPM_P1;HPM_P2
2023/10/01 00:00:29;;;;;;;7.63;4.47;;;7.80;99.90;;;;;;4950765;29;20178;-69
2023/10/01 00:02:56;;;;;;;9.53;4.30;;;7.80;99.90;;;;;;4940007;28;20194;-68
2023/10/01 00:05:24;;;;;;;7.80;3.87;;;7.80;99.90;;;;;;4952262;28;20174;-70
2023/10/01 00:07:51;;;;;;;8.13;4.17;;;7.80;99.90;;;;;;4952126;28;20210;-67
2023/10/01 00:10:18;;;;;;;6.80;3.90;;;7.80;99.90;;;;;;4951156;28;20242;-68
2023/10/01 00:12:46;;;;;;;8.63;4.30;;;7.70;99.90;;;;;;4952127;28;20265;-67
2023/10/01 00:15:14;;;;;;;7.93;4.10;;;7.60;99.90;;;;;;4966498;28;20210;-68
2023/10/01 00:17:41;;;;;;;8.10;4.20;;;7.70;99.90;;;;;;4952114;28;20209;-66
2023/10/01 00:20:18;;;;;;;9.77;4.00;;;7.60;99.90;;;;;;4951257;28;20189;-67
2023/10/01 00:22:51;;;;;;;8.63;4.40;;;7.60;99.90;;;;;;4952146;28;20237;-68
2023/10/01 00:25:18;;;;;;;7.70;3.93;;;7.60;99.90;;;;;;4951778;28;20722;-69
2023/10/01 00:27:45;;;;;;;9.20;4.60;;;7.60;99.90;;;;;;4950946;28;20246;-67
2023/10/01 00:30:11;;;;;;;9.57;3.83;;;7.60;99.90;;;;;;4951364;28;20202;-68
2023/10/01 00:32:38;;;;;;;6.43;4.03;;;7.50;99.90;;;;;;4966963;28;20214;-67
2023/10/01 00:35:04;;;;;;;9.13;4.03;;;7.60;99.90;;;;;;4951677;28;20210;-67
2023/10/01 00:37:32;;;;;;;10.27;4.20;;;7.60;99.90;;;;;;4959839;28;20214;-68
2023/10/01 00:40:00;;;;;;;7.13;3.80;;;7.50;99.90;;;;;;4951690;28;20194;-69
2023/10/01 00:42:28;;;;;;;8.60;4.50;;;7.40;99.90;;;;;;4958884;28;20661;-69
2023/10/01 00:44:57;;;;;;;7.93;4.43;;;7.30;99.90;;;;;;4951681;28;20194;-68
2023/10/01 00:47:30;;;;;;;10.33;4.20;;;7.30;99.90;;;;;;4951873;28;20195;-68
2023/10/01 00:49:57;;;;;;;9.30;4.63;;;7.20;99.90;;;;;;4951103;28;20741;-67
2023/10/01 00:52:23;;;;;;;8.10;4.07;;;7.20;99.90;;;;;;4951822;28;20669;-68
2023/10/01 00:54:51;;;;;;;7.80;4.47;;;7.20;99.90;;;;;;4951551;28;20205;-68
2023/10/01 00:57:17;;;;;;;10.03;5.13;;;7.20;99.90;;;;;;4951530;28;20582;-69
2023/10/01 00:59:44;;;;;;;7.13;4.53;;;7.20;99.90;;;;;;4958505;28;20198;-69
2023/10/01 01:02:15;;;;;;;8.80;4.67;;;7.20;99.90;;;;;;4954089;28;20189;-67
2023/10/01 01:04:44;;;;;;;8.07;4.57;;;7.20;99.90;;;;;;4961816;28;20189;-67
2023/10/01 01:07:20;;;;;;;9.77;4.17;;;7.20;99.90;;;;;;4971015;28;20678;-68
2023/10/01 01:09:49;;;;;;;7.83;4.50;;;7.20;99.90;;;;;;4954491;28;20186;-67
2023/10/01 01:12:15;;;;;;;10.93;5.10;;;7.20;99.90;;;;;;4955076;28;20250;-67
2023/10/01 01:14:44;;;;;;;14.47;5.03;;;7.20;99.90;;;;;;4955192;28;20618;-67
2023/10/01 01:17:10;;;;;;;9.70;4.03;;;7.20;99.90;;;;;;4955014;28;20674;-67
2023/10/01 01:19:36;;;;;;;9.83;4.17;;;7.10;99.90;;;;;;4954354;29;20183;-70
2023/10/01 01:22:02;;;;;;;8.47;4.17;;;7.10;99.90;;;;;;4954908;28;20190;-68
2023/10/01 01:24:29;;;;;;;11.10;4.47;;;7.10;99.90;;;;;;4953985;28;20210;-67
2023/10/01 01:27:00;;;;;;;9.47;4.93;;;7.10;99.90;;;;;;4954826;28;20216;-67
2023/10/01 01:29:33;;;;;;;8.70;4.03;;;7.00;99.90;;;;;;4958718;28;20208;-67
2023/10/01 01:32:15;;;;;;;7.40;4.17;;;7.10;99.90;;;;;;4971413;28;20217;-69
2023/10/01 01:34:41;;;;;;;10.17;3.90;;;7.10;99.90;;;;;;4954843;29;20728;-68
2023/10/01 01:37:08;;;;;;;8.70;4.20;;;7.10;99.90;;;;;;4953155;28;20218;-69
2023/10/01 01:39:54;;;;;;;6.83;3.90;;;7.10;99.90;;;;;;4952812;28;20651;-69
2023/10/01 01:42:21;;;;;;;5.87;3.67;;;7.10;99.90;;;;;;4954812;28;20178;-69
2023/10/01 01:44:48;;;;;;;8.10;3.63;;;7.00;99.90;;;;;;4954692;28;20190;-69
2023/10/01 01:47:17;;;;;;;7.73;4.17;;;7.00;99.90;;;;;;4954454;28;20215;-69
2023/10/01 01:49:43;;;;;;;10.40;4.50;;;7.00;99.90;;;;;;4953961;28;20194;-68
2023/10/01 01:52:10;;;;;;;7.13;3.90;;;7.00;99.90;;;;;;4951922;28;20275;-69
2023/10/01 01:54:37;;;;;;;6.43;3.67;;;6.90;99.90;;;;;;4954361;28;20222;-69
2023/10/01 01:57:03;;;;;;;7.73;3.60;;;6.80;99.90;;;;;;4954324;28;20769;-68
2023/10/01 01:59:29;;;;;;;9.40;4.00;;;6.80;99.90;;;;;;4953655;28;20606;-69
2023/10/01 02:01:55;;;;;;;7.03;4.40;;;6.70;99.90;;;;;;4962027;28;20651;-70
2023/10/01 02:04:22;;;;;;;9.00;4.20;;;6.70;99.90;;;;;;4958018;28;20188;-69
2023/10/01 02:06:48;;;;;;;8.07;4.10;;;6.70;99.90;;;;;;4965479;28;20205;-69
2023/10/01 02:09:19;;;;;;;6.60;3.77;;;6.70;99.90;;;;;;4953790;28;20195;-68
2023/10/01 02:11:48;;;;;;;7.80;3.83;;;6.70;99.90;;;;;;4954153;28;20190;-68
2023/10/01 02:14:30;;;;;;;6.17;3.30;;;6.70;99.90;;;;;;4968362;28;20207;-70
2023/10/01 02:17:02;;;;;;;6.20;3.63;;;6.70;99.90;;;;;;4953886;28;20248;-70
2023/10/01 02:19:29;;;;;;;8.77;3.77;;;6.70;99.90;;;;;;4953451;28;20770;-69
2023/10/01 02:22:05;;;;;;;7.27;4.10;;;6.70;99.90;;;;;;4960514;28;20186;-69
2023/10/01 02:24:44;;;;;;;10.10;3.60;;;6.70;99.90;;;;;;4953998;28;20237;-69
2023/10/01 02:27:15;;;;;;;8.63;4.13;;;6.70;99.90;;;;;;4953747;28;20217;-69
2023/10/01 02:32:28;;;;;;;7.87;4.03;;;6.80;99.90;;;;;;4953230;28;20197;-68
2023/10/01 02:34:56;;;;;;;11.87;4.90;;;6.80;99.90;;;;;;4953585;28;20215;-71
2023/10/01 02:37:29;;;;;;;8.43;4.10;;;6.80;99.90;;;;;;4961540;28;20305;-69
2023/10/01 02:39:59;;;;;;;7.20;3.90;;;6.80;99.90;;;;;;4952735;28;20186;-69
2023/10/01 02:42:30;;;;;;;8.20;4.43;;;6.80;99.90;;;;;;4967986;28;20179;-69
2023/10/01 02:44:55;;;;;;;8.00;3.63;;;6.70;99.90;;;;;;4953488;28;20187;-69
2023/10/01 02:47:23;;;;;;;7.07;3.87;;;6.80;99.90;;;;;;4953539;28;20243;-69
2023/10/01 02:49:52;;;;;;;8.13;3.60;;;6.70;99.90;;;;;;4952644;29;20281;-69
2023/10/01 02:52:19;;;;;;;6.30;3.73;;;6.70;99.90;;;;;;4953368;28;20186;-68
2023/10/01 02:54:53;;;;;;;7.53;3.90;;;6.70;99.90;;;;;;4953365;28;20211;-69
2023/10/01 02:57:26;;;;;;;6.17;3.50;;;6.70;99.90;;;;;;4953566;29;20205;-69
2023/10/01 03:02:42;;;;;;;7.43;3.87;;;6.70;99.90;;;;;;4953733;28;20190;-68
2023/10/01 03:05:16;;;;;;;9.87;3.87;;;6.70;99.90;;;;;;4953475;28;20178;-68
2023/10/01 03:07:45;;;;;;;7.10;3.73;;;6.70;99.90;;;;;;4953366;28;20593;-69
2023/10/01 03:10:32;;;;;;;6.07;3.77;;;6.70;99.90;;;;;;4952527;29;20205;-68
2023/10/01 03:13:04;;;;;;;6.60;3.00;;;6.60;99.90;;;;;;4953151;28;20202;-69
2023/10/01 03:15:35;;;;;;;8.67;3.27;;;6.60;99.90;;;;;;4953351;28;20203;-68
2023/10/01 03:18:06;;;;;;;6.53;3.70;;;6.60;99.90;;;;;;4952677;29;20202;-70
2023/10/01 03:23:05;;;;;;;11.63;4.70;;;6.50;99.90;;;;;;4954459;28;21090;-68
2023/10/01 03:25:41;;;;;;;7.10;4.13;;;6.50;99.90;;;;;;4952834;28;20261;-69
2023/10/01 03:28:18;;;;;;;9.50;3.30;;;6.50;99.90;;;;;;4952319;28;20403;-69
2023/10/01 03:30:48;;;;;;;10.53;4.20;;;6.40;99.90;;;;;;4952780;28;20205;-68
2023/10/01 03:33:16;;;;;;;7.67;3.33;;;6.40;99.90;;;;;;4952596;28;20190;-70
2023/10/01 03:35:47;;;;;;;9.53;3.53;;;6.40;99.90;;;;;;4967096;28;20205;-68
2023/10/01 03:38:14;;;;;;;8.93;4.10;;;6.40;99.90;;;;;;4960182;28;20206;-69
2023/10/01 03:41:06;;;;;;;7.50;3.63;;;6.40;99.90;;;;;;4967379;28;20175;-68
2023/10/01 03:43:32;;;;;;;7.33;3.57;;;6.50;99.90;;;;;;4946918;28;20190;-70
2023/10/01 03:46:19;;;;;;;6.73;3.70;;;6.40;99.90;;;;;;4949359;28;20189;-69
2023/10/01 03:54:52;;;;;;;6.87;3.50;;;6.30;99.90;;;;;;4952307;28;20240;-69
2023/10/01 03:57:14;;;;;;;6.80;3.50;;;6.30;99.90;;;;;;4952030;28;20694;-69
2023/10/01 03:59:41;;;;;;;7.87;3.70;;;6.30;99.90;;;;;;4957637;28;20221;-68
2023/10/01 04:02:27;;;;;;;8.50;4.30;;;6.30;99.90;;;;;;4953988;28;20210;-68
2023/10/01 04:04:58;;;;;;;9.20;3.57;;;6.30;99.90;;;;;;4952182;28;20290;-69
2023/10/01 04:07:40;;;;;;;9.13;3.80;;;6.30;99.90;;;;;;4952268;28;20257;-69
2023/10/01 04:12:54;;;;;;;6.60;3.93;;;6.30;99.90;;;;;;4952397;28;20186;-69
2023/10/01 04:15:31;;;;;;;8.17;4.23;;;6.30;99.90;;;;;;4951961;28;20309;-70
2023/10/01 04:21:18;;;;;;;8.87;3.73;;;6.20;99.90;;;;;;4951926;29;20217;-68
2023/10/01 04:23:49;;;;;;;8.57;4.20;;;6.20;99.90;;;;;;4946244;28;20270;-69
2023/10/01 04:26:19;;;;;;;7.20;4.17;;;6.20;99.90;;;;;;4943841;28;20191;-69
2023/10/01 04:28:47;;;;;;;7.17;3.93;;;6.20;99.90;;;;;;4951486;28;20668;-68
2023/10/01 04:31:42;;;;;;;7.30;4.20;;;6.20;99.90;;;;;;4952025;28;20220;-69
2023/10/01 04:34:05;;;;;;;9.10;4.27;;;6.20;99.90;;;;;;4971746;28;20857;-68
2023/10/01 04:36:32;;;;;;;8.43;3.77;;;6.10;99.90;;;;;;4957826;28;20253;-68
2023/10/01 04:39:00;;;;;;;9.97;4.00;;;6.10;99.90;;;;;;4963916;28;20183;-68
2023/10/01 04:41:26;;;;;;;7.50;3.70;;;6.10;99.90;;;;;;4955876;28;20198;-69
2023/10/01 04:44:06;;;;;;;10.70;4.00;;;6.10;99.90;;;;;;4951508;28;20229;-69
2023/10/01 04:46:37;;;;;;;6.83;3.60;;;6.10;99.90;;;;;;4949394;28;20199;-69
2023/10/01 04:49:26;;;;;;;7.13;3.80;;;6.10;99.90;;;;;;4968617;28;20483;-69
2023/10/01 04:51:53;;;;;;;7.00;4.00;;;6.10;99.90;;;;;;4963324;28;20716;-68
2023/10/01 04:54:21;;;;;;;7.87;4.10;;;6.10;99.90;;;;;;4955705;28;20289;-69
2023/10/01 04:56:48;;;;;;;7.50;4.03;;;6.10;99.90;;;;;;4970311;28;20616;-69
2023/10/01 04:59:15;;;;;;;5.97;3.60;;;6.10;99.90;;;;;;4954908;28;20741;-69
2023/10/01 05:01:41;;;;;;;7.73;3.57;;;6.10;99.90;;;;;;4955977;28;20664;-69
2023/10/01 05:04:11;;;;;;;7.40;3.77;;;6.00;99.90;;;;;;4963321;28;20178;-69
2023/10/01 05:06:37;;;;;;;5.97;3.40;;;6.00;99.90;;;;;;4955432;28;20199;-69
2023/10/01 05:09:07;;;;;;;6.57;3.40;;;6.10;99.90;;;;;;4955085;28;20221;-70
2023/10/01 05:11:33;;;;;;;8.37;3.70;;;6.00;99.90;;;;;;4955314;28;20186;-70
2023/10/01 05:13:59;;;;;;;9.27;3.90;;;6.00;99.90;;;;;;4955213;28;20571;-69
2023/10/01 05:16:28;;;;;;;8.03;3.90;;;6.00;99.90;;;;;;4959055;28;20769;-69
2023/10/01 05:19:10;;;;;;;10.13;3.80;;;6.00;99.90;;;;;;4958196;28;20171;-69
2023/10/01 05:21:49;;;;;;;7.97;4.47;;;6.00;99.90;;;;;;4957436;28;20171;-69
2023/10/01 05:24:34;;;;;;;7.60;3.80;;;6.00;99.90;;;;;;4954912;28;20190;-69
2023/10/01 05:27:10;;;;;;;6.40;3.50;;;6.00;99.90;;;;;;4954944;28;20202;-69
2023/10/01 05:29:39;;;;;;;8.00;4.20;;;6.10;99.90;;;;;;4954621;28;20186;-68
2023/10/01 05:32:04;;;;;;;7.70;4.17;;;6.00;99.90;;;;;;4954887;28;20182;-69
2023/10/01 05:34:32;;;;;;;6.57;4.10;;;6.10;99.90;;;;;;4954242;28;20301;-69
2023/10/01 05:37:08;;;;;;;8.80;4.27;;;6.10;99.90;;;;;;4953424;28;20694;-69
2023/10/01 05:39:55;;;;;;;7.10;3.83;;;6.10;99.90;;;;;;4953457;28;20175;-69
2023/10/01 05:42:33;;;;;;;8.23;4.23;;;6.10;99.90;;;;;;4957481;28;20209;-69
2023/10/01 05:44:59;;;;;;;7.63;3.97;;;6.20;99.90;;;;;;4955025;28;20685;-69
2023/10/01 05:47:41;;;;;;;8.07;4.30;;;6.20;99.90;;;;;;4957598;28;20288;-70
2023/10/01 05:50:12;;;;;;;8.40;4.53;;;6.20;99.90;;;;;;4963108;28;20681;-69
2023/10/01 05:52:40;;;;;;;7.87;4.23;;;6.20;99.90;;;;;;4954753;28;20269;-69
2023/10/01 05:55:12;;;;;;;6.50;3.70;;;6.30;99.90;;;;;;4961717;28;20206;-69
2023/10/01 05:57:38;;;;;;;9.07;4.27;;;6.30;99.90;;;;;;4949162;28;20548;-69
2023/10/01 06:00:16;;;;;;;8.50;3.70;;;6.40;99.90;;;;;;4950672;28;20175;-69
2023/10/01 06:03:00;;;;;;;5.60;3.50;;;6.50;99.90;;;;;;4959632;28;20210;-69
2023/10/01 06:05:50;;;;;;;7.23;3.87;;;6.60;99.90;;;;;;4946372;28;20178;-69
2023/10/01 06:08:15;;;;;;;8.63;4.20;;;6.60;99.90;;;;;;4960958;28;20217;-69
2023/10/01 06:11:04;;;;;;;10.07;3.80;;;6.70;99.90;;;;;;4955670;28;20238;-69
2023/10/01 06:13:35;;;;;;;9.13;4.50;;;6.80;99.90;;;;;;4946785;28;20684;-69
2023/10/01 06:16:15;;;;;;;9.37;3.90;;;6.90;99.90;;;;;;4945389;28;20266;-69
2023/10/01 06:18:42;;;;;;;9.37;3.70;;;7.10;99.90;;;;;;4952771;28;20193;-69
2023/10/01 06:21:10;;;;;;;8.00;4.50;;;7.40;99.90;;;;;;4953781;28;20596;-69
2023/10/01 06:23:49;;;;;;;7.73;3.70;;;7.60;99.90;;;;;;4957197;28;20174;-69
2023/10/01 06:26:22;;;;;;;12.87;4.13;;;8.00;99.90;;;;;;4961669;28;20202;-69
2023/10/01 06:28:49;;;;;;;7.13;3.87;;;8.20;99.90;;;;;;4960841;28;20719;-70
2023/10/01 06:31:20;;;;;;;10.63;3.73;;;8.10;99.90;;;;;;4952994;28;20279;-69
2023/10/01 06:33:46;;;;;;;7.40;3.73;;;8.00;99.90;;;;;;4967491;28;20583;-69
2023/10/01 06:36:15;;;;;;;7.67;4.07;;;8.00;99.90;;;;;;4962134;28;20222;-69
2023/10/01 06:38:45;;;;;;;11.70;3.63;;;7.90;99.90;;;;;;4952477;28;20649;-69
2023/10/01 06:41:18;;;;;;;6.90;3.60;;;7.90;99.90;;;;;;4960712;28;20202;-69
2023/10/01 06:43:54;;;;;;;5.97;3.37;;;7.90;99.90;;;;;;4954622;28;20195;-69
2023/10/01 06:46:27;;;;;;;6.90;3.63;;;7.90;99.90;;;;;;4960504;28;20269;-69
2023/10/01 06:48:56;;;;;;;9.60;3.60;;;7.90;99.90;;;;;;4952238;28;20182;-69
2023/10/01 06:51:24;;;;;;;9.10;4.30;;;8.00;99.90;;;;;;4952671;28;20658;-69
2023/10/01 06:53:58;;;;;;;7.13;3.50;;;8.00;99.90;;;;;;4952581;28;20756;-69
2023/10/01 06:56:26;;;;;;;7.87;4.17;;;8.10;99.90;;;;;;4947028;28;20199;-69
2023/10/01 06:59:13;;;;;;;9.23;4.67;;;8.20;99.90;;;;;;4948089;28;20183;-69
2023/10/01 07:01:46;;;;;;;7.83;3.93;;;8.30;99.90;;;;;;4947038;28;20261;-69
2023/10/01 07:04:19;;;;;;;9.53;4.27;;;8.60;99.90;;;;;;4962450;28;20601;-69
2023/10/01 07:06:48;;;;;;;9.10;4.30;;;8.90;99.90;;;;;;4957410;28;20313;-69
2023/10/01 07:12:09;;;;;;;7.70;4.07;;;9.60;99.90;;;;;;4942010;28;20196;-69
2023/10/01 07:14:44;;;;;;;10.23;4.60;;;10.00;99.90;;;;;;4952048;28;20270;-67
2023/10/01 07:17:15;;;;;;;8.07;4.33;;;10.40;99.90;;;;;;4952125;28;20709;-69
2023/10/01 07:19:42;;;;;;;8.50;4.13;;;10.70;99.90;;;;;;4951649;28;20253;-69
2023/10/01 07:22:15;;;;;;;9.63;3.83;;;10.90;99.90;;;;;;4951898;28;20182;-69
2023/10/01 07:24:44;;;;;;;9.73;3.97;;;11.20;99.90;;;;;;4952196;28;20311;-69
2023/10/01 07:27:17;;;;;;;10.43;3.97;;;11.40;99.90;;;;;;4949008;28;20651;-69
2023/10/01 07:29:43;;;;;;;9.47;3.97;;;11.70;99.90;;;;;;4951258;28;20187;-69
2023/10/01 07:32:12;;;;;;;6.87;4.00;;;12.10;99.90;;;;;;4945530;28;20423;-69
2023/10/01 07:35:06;;;;;;;10.40;4.33;;;12.30;99.90;;;;;;4972702;28;20203;-69
2023/10/01 07:37:31;;;;;;;9.77;4.57;;;12.70;99.90;;;;;;4944834;28;20217;-69
2023/10/01 07:40:09;;;;;;;7.73;4.00;;;13.00;99.90;;;;;;4958990;28;20181;-69
2023/10/01 07:42:46;;;;;;;10.37;4.07;;;13.10;99.90;;;;;;4958434;28;20170;-69
2023/10/01 07:45:16;;;;;;;6.10;3.63;;;13.50;99.90;;;;;;4945213;28;20190;-69
2023/10/01 07:47:45;;;;;;;6.83;3.40;;;13.90;99.90;;;;;;4951624;28;20207;-70
2023/10/01 07:50:12;;;;;;;7.20;3.57;;;14.30;99.90;;;;;;4951296;28;20285;-70
2023/10/01 07:52:40;;;;;;;9.37;3.80;;;14.60;99.90;;;;;;4951705;28;20177;-69
2023/10/01 07:58:22;;;;;;;8.53;3.30;;;15.00;99.90;;;;;;4958988;28;20217;-69
2023/10/01 08:00:43;;;;;;;6.07;3.77;;;15.20;99.90;;;;;;4946078;28;20174;-69
2023/10/01 08:05:47;;;;;;;6.63;3.80;;;15.60;99.90;;;;;;4970744;28;20220;-69
2023/10/01 08:08:13;;;;;;;5.83;3.37;;;15.80;99.90;;;;;;4965294;28;20210;-69
2023/10/01 08:10:43;;;;;;;6.83;3.43;;;15.90;99.90;;;;;;4964709;28;20607;-69
2023/10/01 08:13:20;;;;;;;6.17;3.67;;;16.10;99.90;;;;;;4952984;28;20221;-69
2023/10/01 08:15:59;;;;;;;8.57;3.27;;;16.50;99.90;;;;;;4957456;28;20213;-70
2023/10/01 08:18:39;;;;;;;8.70;3.40;;;16.70;99.90;;;;;;4943032;28;20261;-70
2023/10/01 08:21:18;;;;;;;7.73;3.47;;;16.90;99.90;;;;;;4972373;28;20709;-70
2023/10/01 08:23:54;;;;;;;10.13;3.57;;;17.10;99.90;;;;;;4951459;28;20531;-69
2023/10/01 08:29:07;;;;;;;7.10;3.40;;;17.40;99.90;;;;;;4962405;28;20689;-69
2023/10/01 08:34:22;;;;;;;6.63;3.13;;;17.80;99.90;;;;;;4950945;28;20688;-69
2023/10/01 08:36:49;;;;;;;8.03;3.03;;;18.20;99.90;;;;;;4954686;28;20649;-69
2023/10/01 08:39:33;;;;;;;7.87;3.20;;;18.30;99.90;;;;;;4950404;28;20193;-69
2023/10/01 08:42:08;;;;;;;8.17;3.30;;;18.70;99.90;;;;;;4950873;28;20310;-69
2023/10/01 08:44:49;;;;;;;8.70;3.50;;;18.70;99.90;;;;;;4944533;28;20372;-69
2023/10/01 08:47:59;;;;;;;6.30;3.57;;;18.90;99.90;;;;;;4950163;28;20198;-69
2023/10/01 08:50:27;;;;;;;7.03;3.60;;;19.20;99.90;;;;;;4958337;28;20310;-69
2023/10/01 08:52:58;;;;;;;6.97;3.57;;;19.40;99.90;;;;;;4954803;28;20182;-69
2023/10/01 08:55:35;;;;;;;8.03;3.87;;;19.50;99.90;;;;;;4962199;28;20681;-68
2023/10/01 08:58:13;;;;;;;7.30;3.47;;;19.70;99.90;;;;;;4968495;28;20772;-69
2023/10/01 09:00:48;;;;;;;8.73;3.67;;;20.00;99.90;;;;;;4950517;28;20569;-69
2023/10/01 09:03:28;;;;;;;6.97;3.60;;;20.20;99.90;;;;;;4952798;28;20186;-67
2023/10/01 09:06:03;;;;;;;7.83;3.77;;;20.30;99.90;;;;;;4962285;28;20216;-69
2023/10/01 09:08:31;;;;;;;9.10;3.83;;;20.40;99.90;;;;;;4943127;28;20190;-69
2023/10/01 09:11:10;;;;;;;7.00;3.27;;;20.60;99.90;;;;;;4950856;28;20185;-69
2023/10/01 09:13:45;;;;;;;7.80;3.60;;;20.70;99.90;;;;;;4950840;28;20225;-69
2023/10/01 09:16:11;;;;;;;9.33;3.37;;;20.80;99.90;;;;;;4951171;28;20547;-69
2023/10/01 09:19:03;;;;;;;7.67;3.50;;;20.70;99.90;;;;;;4950394;28;20182;-70
2023/10/01 09:21:31;;;;;;;6.40;3.63;;;20.90;99.90;;;;;;4954070;28;20262;-70
2023/10/01 09:23:58;;;;;;;10.33;3.87;;;21.00;99.90;;;;;;4954504;28;20734;-69
2023/10/01 09:26:56;;;;;;;7.50;3.77;;;21.00;99.90;;;;;;4962266;28;20198;-69
2023/10/01 09:29:23;;;;;;;7.13;3.63;;;21.20;99.90;;;;;;4953637;28;20280;-70
2023/10/01 09:31:58;;;;;;;6.47;3.10;;;21.40;99.90;;;;;;4947568;28;20273;-70
2023/10/01 09:34:46;;;;;;;8.57;3.30;;;21.40;99.90;;;;;;4954270;28;20266;-70
2023/10/01 09:37:34;;;;;;;9.30;3.63;;;21.70;99.90;;;;;;4961776;28;20249;-70
2023/10/01 09:40:05;;;;;;;6.67;3.10;;;22.10;99.90;;;;;;4953733;28;20273;-70
2023/10/01 09:42:44;;;;;;;5.97;3.33;;;22.80;99.90;;;;;;4960505;28;20174;-70
2023/10/01 09:45:26;;;;;;;7.97;3.10;;;22.70;99.90;;;;;;4953954;28;20180;-69
2023/10/01 09:48:03;;;;;;;7.07;3.80;;;23.00;99.90;;;;;;4953835;28;20210;-69
2023/10/01 09:50:41;;;;;;;6.60;3.50;;;23.20;99.90;;;;;;4946001;28;20211;-70
2023/10/01 09:53:19;;;;;;;6.37;3.27;;;23.70;99.90;;;;;;4953589;28;20198;-69
2023/10/01 09:55:49;;;;;;;6.77;3.60;;;24.00;99.90;;;;;;4953494;28;20564;-69
2023/10/01 09:58:24;;;;;;;8.70;3.90;;;24.10;99.90;;;;;;4961300;28;20694;-69
2023/10/01 10:01:08;;;;;;;8.47;3.60;;;24.60;99.90;;;;;;4947009;28;20206;-69
2023/10/01 10:03:36;;;;;;;9.47;3.60;;;24.90;99.90;;;;;;4946805;28;20174;-69
2023/10/01 10:06:09;;;;;;;7.90;3.77;;;25.20;99.90;;;;;;4948976;28;20607;-69
2023/10/01 10:08:37;;;;;;;9.43;3.70;;;25.60;99.90;;;;;;4957655;28;20712;-69
2023/10/01 10:11:06;;;;;;;9.13;3.80;;;25.50;99.90;;;;;;4956047;28;20201;-67
2023/10/01 10:13:45;;;;;;;10.40;3.60;;;25.50;99.90;;;;;;4953342;28;20561;-69
2023/10/01 10:19:20;;;;;;;8.70;3.60;;;25.90;99.90;;;;;;4952829;28;20684;-67
2023/10/01 10:24:29;;;;;;;10.57;4.40;;;26.90;99.90;;;;;;4953339;28;20186;-67
2023/10/01 10:27:09;;;;;;;8.47;3.80;;;27.10;99.90;;;;;;4952973;28;20214;-64
2023/10/01 10:29:46;;;;;;;7.93;4.03;;;27.60;99.90;;;;;;4952153;29;20183;-64
2023/10/01 10:32:24;;;;;;;10.10;4.10;;;27.40;99.90;;;;;;4954513;28;20185;-71
2023/10/01 10:35:03;;;;;;;9.90;4.07;;;27.20;99.90;;;;;;4972133;28;20233;-68
2023/10/01 10:37:53;;;;;;;8.47;4.17;;;26.90;99.90;;;;;;4945299;28;20633;-68
2023/10/01 10:43:02;;;;;;;11.20;4.50;;;26.60;99.90;;;;;;4952776;29;20194;-65
2023/10/01 10:45:42;;;;;;;13.07;4.50;;;26.30;99.90;;;;;;4952864;28;20185;-68
2023/10/01 10:48:08;;;;;;;8.57;4.30;;;26.20;99.90;;;;;;4952460;28;20210;-67
2023/10/01 10:50:53;;;;;;;8.90;4.23;;;26.10;99.90;;;;;;4959081;28;20269;-67
2023/10/01 10:53:25;;;;;;;11.90;4.03;;;25.80;99.90;;;;;;4952440;28;20834;-68
2023/10/01 10:56:06;;;;;;;9.23;4.07;;;25.60;99.90;;;;;;4951943;28;20206;-70
2023/10/01 10:58:45;;;;;;;10.17;4.77;;;25.30;99.90;;;;;;4966353;28;20210;-70
2023/10/01 11:01:22;;;;;;;10.97;4.20;;;25.10;99.90;;;;;;4959617;28;20184;-70
2023/10/01 11:03:58;;;;;;;12.60;4.43;;;24.90;99.90;;;;;;4951932;28;20209;-67
2023/10/01 11:06:44;;;;;;;10.63;4.87;;;25.00;99.90;;;;;;4952314;28;20649;-68
2023/10/01 11:09:27;;;;;;;13.67;5.27;;;25.10;99.90;;;;;;4945100;28;20178;-68
2023/10/01 11:12:18;;;;;;;10.10;4.93;;;25.10;99.90;;;;;;4956603;28;20211;-68
2023/10/01 11:14:53;;;;;;;10.73;4.47;;;25.10;99.90;;;;;;4938953;28;20202;-69
2023/10/01 11:17:22;;;;;;;10.37;4.03;;;25.00;99.90;;;;;;4957993;28;20226;-68
2023/10/01 11:19:47;;;;;;;14.90;5.20;;;25.00;99.90;;;;;;4951770;28;20182;-69
2023/10/01 11:22:13;;;;;;;10.20;4.63;;;25.00;99.90;;;;;;4952278;28;20187;-69
2023/10/01 11:24:41;;;;;;;11.67;4.80;;;24.90;99.90;;;;;;4947251;28;20171;-68
2023/10/01 11:27:14;;;;;;;13.63;4.87;;;25.10;99.90;;;;;;4950266;28;20229;-68
2023/10/01 11:29:41;;;;;;;12.90;5.07;;;25.10;99.90;;;;;;4965788;28;20190;-68
2023/10/01 11:32:07;;;;;;;11.80;4.97;;;25.20;99.90;;;;;;4959822;28;20182;-68
2023/10/01 11:34:43;;;;;;;11.33;5.00;;;25.50;99.90;;;;;;4952023;28;20210;-69
2023/10/01 11:37:18;;;;;;;15.00;6.33;;;25.70;99.90;;;;;;4951694;28;20663;-68
2023/10/01 11:39:52;;;;;;;12.50;5.60;;;26.20;99.90;;;;;;4959438;28;20178;-69
2023/10/01 11:42:35;;;;;;;13.83;5.73;;;26.50;99.90;;;;;;4959115;28;20189;-69
2023/10/01 11:45:31;;;;;;;14.97;5.50;;;26.60;99.90;;;;;;4952287;28;20277;-67
2023/10/01 11:48:06;;;;;;;14.00;5.43;;;26.70;99.90;;;;;;4958040;28;20220;-68
2023/10/01 11:50:50;;;;;;;12.43;5.97;;;26.70;99.90;;;;;;4955759;28;20277;-67
2023/10/01 11:53:28;;;;;;;16.70;6.60;;;26.60;99.90;;;;;;4961262;28;20187;-69
2023/10/01 11:56:01;;;;;;;17.67;6.57;;;26.50;99.90;;;;;;4959650;28;20736;-68
2023/10/01 11:58:28;;;;;;;15.23;6.33;;;26.60;99.90;;;;;;4943129;28;20584;-68
2023/10/01 12:00:59;;;;;;;15.87;6.43;;;26.80;99.90;;;;;;4951854;28;20237;-69
2023/10/01 12:03:27;;;;;;;17.03;6.60;;;26.90;99.90;;;;;;4951439;28;20181;-69
2023/10/01 12:05:56;;;;;;;16.67;6.97;;;26.80;99.90;;;;;;4951708;28;20253;-67
2023/10/01 12:08:38;;;;;;;18.43;6.57;;;26.70;99.90;;;;;;4948104;28;20187;-69
2023/10/01 12:14:04;;;;;;;16.93;6.60;;;26.60;99.90;;;;;;4957597;28;20193;-69
2023/10/01 12:16:30;;;;;;;16.47;5.83;;;26.70;99.90;;;;;;4943985;28;20646;-68
2023/10/01 12:19:21;;;;;;;17.33;6.80;;;26.70;99.90;;;;;;4942934;28;20561;-69
2023/10/01 12:21:41;;;;;;;17.17;7.30;;;26.70;99.90;;;;;;4950717;28;20189;-68
2023/10/01 12:24:12;;;;;;;14.73;6.17;;;26.70;99.90;;;;;;4953886;28;20285;-69
2023/10/01 12:26:43;;;;;;;15.30;6.50;;;27.00;99.90;;;;;;4954737;28;20214;-69
2023/10/01 12:29:12;;;;;;;16.27;7.13;;;27.10;99.90;;;;;;4956439;28;20214;-69
2023/10/01 12:31:44;;;;;;;16.37;6.47;;;27.10;99.90;;;;;;4956310;28;20549;-69
2023/10/01 12:34:13;;;;;;;15.03;6.73;;;27.20;99.90;;;;;;4953258;28;20218;-69
2023/10/01 12:36:42;;;;;;;16.70;6.53;;;27.40;99.90;;;;;;4951100;28;20221;-69
2023/10/01 12:44:30;;;;;;;18.67;6.50;;;27.30;99.90;;;;;;4951134;28;20562;-67
2023/10/01 12:47:00;;;;;;;13.57;6.10;;;27.50;99.90;;;;;;4959113;28;20203;-67
2023/10/01 12:49:26;;;;;;;15.00;6.10;;;27.60;99.90;;;;;;4950454;28;20181;-67
2023/10/01 12:51:55;;;;;;;16.60;6.57;;;27.80;99.90;;;;;;4965704;28;20182;-68
2023/10/01 12:54:28;;;;;;;15.57;6.07;;;27.70;99.90;;;;;;4949104;28;20209;-68
2023/10/01 12:57:09;;;;;;;16.43;6.70;;;27.80;99.90;;;;;;4957299;28;20206;-65
2023/10/01 12:59:39;;;;;;;16.83;6.67;;;27.90;99.90;;;;;;4961103;28;20175;-65
2023/10/01 13:02:42;;;;;;;16.70;6.17;;;27.80;99.90;;;;;;4962913;28;20185;-66
2023/10/01 13:07:42;;;;;;;16.00;6.33;;;27.60;99.90;;;;;;4958214;28;20297;-65
2023/10/01 13:10:08;;;;;;;15.80;6.40;;;27.50;99.90;;;;;;4955054;28;20214;-66
2023/10/01 13:15:29;;;;;;;14.50;5.90;;;27.40;99.90;;;;;;4962529;28;20213;-67
2023/10/01 13:18:04;;;;;;;14.63;6.27;;;27.60;99.90;;;;;;4954274;28;20983;-66
2023/10/01 13:20:31;;;;;;;14.67;6.50;;;27.50;99.90;;;;;;4954203;28;20241;-66
2023/10/01 13:23:05;;;;;;;14.83;6.63;;;27.70;99.90;;;;;;4962521;28;20660;-66
2023/10/01 13:25:31;;;;;;;18.23;7.63;;;27.80;99.90;;;;;;4954951;28;20193;-66
2023/10/01 13:28:04;;;;;;;14.57;5.80;;;27.60;99.90;;;;;;4954058;28;20279;-67
2023/10/01 13:33:25;;;;;;;16.30;6.73;;;27.10;99.90;;;;;;4964889;28;20225;-66
2023/10/01 13:35:57;;;;;;;14.77;6.80;;;27.00;99.90;;;;;;4951009;28;20598;-68
2023/10/01 13:38:37;;;;;;;16.13;6.63;;;27.30;99.90;;;;;;4956306;28;20276;-67
2023/10/01 14:11:03;;;;;;;16.07;6.33;;;27.00;99.90;;;;;;4964019;28;20248;-66
2023/10/01 14:13:29;;;;;;;14.50;5.90;;;27.00;99.90;;;;;;4972022;28;20193;-65
2023/10/01 14:16:11;;;;;;;15.80;6.27;;;27.00;99.90;;;;;;4986986;28;20265;-66
2023/10/01 14:18:38;;;;;;;15.77;6.47;;;26.90;99.90;;;;;;4964746;28;20181;-65
2023/10/01 14:21:12;;;;;;;14.93;6.73;;;26.80;99.90;;;;;;4972564;28;20193;-65
2023/10/01 14:23:44;;;;;;;13.67;5.97;;;26.90;99.90;;;;;;4972340;28;20300;-65
2023/10/01 14:26:10;;;;;;;14.93;6.07;;;27.00;99.90;;;;;;4979481;28;20196;-65
2023/10/01 14:28:36;;;;;;;13.93;6.07;;;27.00;99.90;;;;;;4965118;28;20189;-65
2023/10/01 14:31:07;;;;;;;17.67;6.67;;;27.10;99.90;;;;;;4972234;28;20182;-65
2023/10/01 14:33:40;;;;;;;16.13;6.57;;;27.20;99.90;;;;;;4965186;28;20205;-65
2023/10/01 14:36:06;;;;;;;14.00;5.93;;;27.10;99.90;;;;;;4972190;28;20226;-66
2023/10/01 14:38:37;;;;;;;15.17;5.97;;;27.10;99.90;;;;;;4971584;28;20185;-65
2023/10/01 14:41:11;;;;;;;16.63;6.33;;;27.20;99.90;;;;;;4986768;28;20265;-65
2023/10/01 14:43:51;;;;;;;15.13;6.67;;;27.40;99.90;;;;;;4965369;28;20236;-66